sensor_id;sensor_type;location;lat;lon;timestamp;P1;durP1;ratioP1;P2;durP2;ratioP2
66384;SDS011;53426;55.872;37.462;2024-02-16T00:01:28;17.80;;;9.90;;
66384;SDS011;53426;55.872;37.462;2024-02-16T00:04:12;25.80;;;11.23;;
66384;SDS011;53426;55.872;37.462;2024-02-16T00:06:41;13.35;;;7.45;;
66384;SDS011;53426;55.872;37.462;2024-02-16T00:09:09;16.67;;;9.55;;
66384;SDS011;53426;55.872;37.462;2024-02-16T00:11:36;8.68;;;6.25;;
66384;SDS011;53426;55.872;37.462;2024-02-16T00:14:03;22.10;;;11.18;;
66384;SDS011;53426;55.872;37.462;2024-02-16T00:16:59;21.02;;;9.95;;
66384;SDS011;53426;55.872;37.462;2024-02-16T00:19:27;19.92;;;9.25;;
66384;SDS011;53426;55.872;37.462;2024-02-16T00:21:55;19.55;;;11.13;;
66384;SDS011;53426;55.872;37.462;2024-02-16T00:24:22;23.75;;;11.45;;
66384;SDS011;53426;55.872;37.462;2024-02-16T00:26:55;14.60;;;5.50;;
66384;SDS011;53426;55.872;37.462;2024-02-16T00:29:21;15.65;;;9.43;;
66384;SDS011;53426;55.872;37.462;2024-02-16T00:31:48;16.88;;;9.88;;
66384;SDS011;53426;55.872;37.462;2024-02-16T00:34:15;12.35;;;5.65;;
66384;SDS011;53426;55.872;37.462;2024-02-16T00:36:43;17.88;;;10.88;;
66384;SDS011;53426;55.872;37.462;2024-02-16T00:39:11;21.15;;;9.88;;
66384;SDS011;53426;55.872;37.462;2024-02-16T00:41:37;10.45;;;7.57;;
66384;SDS011;53426;55.872;37.462;2024-02-16T00:44:08;18.60;;;10.13;;
66384;SDS011;53426;55.872;37.462;2024-02-16T00:46:39;23.27;;;9.98;;
66384;SDS011;53426;55.872;37.462;2024-02-16T00:49:08;18.35;;;9.77;;
66384;SDS011;53426;55.872;37.462;2024-02-16T00:51:38;14.98;;;9.07;;
66384;SDS011;53426;55.872;37.462;2024-02-16T00:54:10;26.65;;;10.48;;
66384;SDS011;53426;55.872;37.462;2024-02-16T00:57:22;15.30;;;9.63;;
66384;SDS011;53426;55.872;37.462;2024-02-16T01:03:15;19.35;;;9.25;;
66384;SDS011;53426;55.872;37.462;2024-02-16T01:06:13;16.40;;;9.77;;
66384;SDS011;53426;55.872;37.462;2024-02-16T01:08:58;17.73;;;10.77;;
66384;SDS011;53426;55.872;37.462;2024-02-16T01:11:33;18.70;;;11.02;;
66384;SDS011;53426;55.872;37.462;2024-02-16T01:14:00;16.13;;;9.43;;
66384;SDS011;53426;55.872;37.462;2024-02-16T01:16:28;16.77;;;9.05;;
66384;SDS011;53426;55.872;37.462;2024-02-16T01:18:56;19.23;;;10.25;;
66384;SDS011;53426;55.872;37.462;2024-02-16T01:21:32;15.18;;;10.68;;
66384;SDS011;53426;55.872;37.462;2024-02-16T01:24:03;20.73;;;10.10;;
66384;SDS011;53426;55.872;37.462;2024-02-16T01:26:33;25.10;;;9.32;;
66384;SDS011;53426;55.872;37.462;2024-02-16T01:28:59;13.48;;;6.95;;
66384;SDS011;53426;55.872;37.462;2024-02-16T01:31:28;19.63;;;9.50;;
66384;SDS011;53426;55.872;37.462;2024-02-16T01:33:58;8.55;;;4.97;;
66384;SDS011;53426;55.872;37.462;2024-02-16T01:36:26;16.92;;;10.02;;
66384;SDS011;53426;55.872;37.462;2024-02-16T01:38:55;26.70;;;11.05;;
66384;SDS011;53426;55.872;37.462;2024-02-16T01:44:50;11.07;;;8.13;;
66384;SDS011;53426;55.872;37.462;2024-02-16T01:47:19;4.65;;;3.60;;
66384;SDS011;53426;55.872;37.462;2024-02-16T01:52:27;15.38;;;8.95;;
66384;SDS011;53426;55.872;37.462;2024-02-16T02:00:59;18.95;;;9.50;;
66384;SDS011;53426;55.872;37.462;2024-02-16T02:03:25;18.20;;;10.57;;
66384;SDS011;53426;55.872;37.462;2024-02-16T02:05:54;14.05;;;9.25;;
66384;SDS011;53426;55.872;37.462;2024-02-16T02:08:22;19.50;;;9.57;;
66384;SDS011;53426;55.872;37.462;2024-02-16T02:10:54;12.77;;;7.90;;
66384;SDS011;53426;55.872;37.462;2024-02-16T02:13:31;17.30;;;9.88;;
66384;SDS011;53426;55.872;37.462;2024-02-16T02:16:00;20.92;;;10.35;;
66384;SDS011;53426;55.872;37.462;2024-02-16T02:18:30;18.08;;;9.35;;
66384;SDS011;53426;55.872;37.462;2024-02-16T02:23:50;18.90;;;10.65;;
66384;SDS011;53426;55.872;37.462;2024-02-16T02:26:17;23.88;;;11.55;;
66384;SDS011;53426;55.872;37.462;2024-02-16T02:28:43;11.48;;;6.43;;
66384;SDS011;53426;55.872;37.462;2024-02-16T02:31:09;14.68;;;8.93;;
66384;SDS011;53426;55.872;37.462;2024-02-16T02:33:36;18.02;;;11.20;;
66384;SDS011;53426;55.872;37.462;2024-02-16T02:36:06;20.65;;;10.32;;
66384;SDS011;53426;55.872;37.462;2024-02-16T02:38:34;19.33;;;11.48;;
66384;SDS011;53426;55.872;37.462;2024-02-16T02:43:55;16.60;;;8.27;;
66384;SDS011;53426;55.872;37.462;2024-02-16T02:46:22;16.80;;;8.30;;
66384;SDS011;53426;55.872;37.462;2024-02-16T02:49:34;15.80;;;8.38;;
66384;SDS011;53426;55.872;37.462;2024-02-16T02:52:00;16.00;;;9.70;;
66384;SDS011;53426;55.872;37.462;2024-02-16T02:54:30;5.50;;;3.78;;
66384;SDS011;53426;55.872;37.462;2024-02-16T02:57:24;5.10;;;4.60;;
66384;SDS011;53426;55.872;37.462;2024-02-16T03:03:02;17.10;;;8.82;;
66384;SDS011;53426;55.872;37.462;2024-02-16T03:05:29;20.95;;;10.93;;
66384;SDS011;53426;55.872;37.462;2024-02-16T03:07:55;21.08;;;11.32;;
66384;SDS011;53426;55.872;37.462;2024-02-16T03:10:26;24.60;;;11.93;;
66384;SDS011;53426;55.872;37.462;2024-02-16T03:16:20;21.52;;;10.30;;
66384;SDS011;53426;55.872;37.462;2024-02-16T03:18:47;13.60;;;9.15;;
66384;SDS011;53426;55.872;37.462;2024-02-16T03:21:16;22.00;;;9.23;;
66384;SDS011;53426;55.872;37.462;2024-02-16T03:23:42;13.35;;;9.45;;
66384;SDS011;53426;55.872;37.462;2024-02-16T03:26:18;22.73;;;11.30;;
66384;SDS011;53426;55.872;37.462;2024-02-16T03:28:48;25.73;;;13.45;;
66384;SDS011;53426;55.872;37.462;2024-02-16T03:31:18;15.55;;;8.93;;
66384;SDS011;53426;55.872;37.462;2024-02-16T03:33:55;24.70;;;12.10;;
66384;SDS011;53426;55.872;37.462;2024-02-16T03:39:19;20.13;;;10.43;;
66384;SDS011;53426;55.872;37.462;2024-02-16T03:41:46;21.83;;;11.75;;
66384;SDS011;53426;55.872;37.462;2024-02-16T03:44:54;9.05;;;6.15;;
66384;SDS011;53426;55.872;37.462;2024-02-16T03:47:52;24.10;;;12.50;;
66384;SDS011;53426;55.872;37.462;2024-02-16T03:50:19;22.98;;;11.02;;
66384;SDS011;53426;55.872;37.462;2024-02-16T03:52:50;14.15;;;8.35;;
66384;SDS011;53426;55.872;37.462;2024-02-16T03:55:33;17.02;;;10.48;;
66384;SDS011;53426;55.872;37.462;2024-02-16T03:58:04;15.90;;;9.43;;
66384;SDS011;53426;55.872;37.462;2024-02-16T04:00:47;27.60;;;12.02;;
66384;SDS011;53426;55.872;37.462;2024-02-16T04:03:16;19.52;;;11.35;;
66384;SDS011;53426;55.872;37.462;2024-02-16T04:05:45;22.10;;;12.02;;
66384;SDS011;53426;55.872;37.462;2024-02-16T04:08:11;12.38;;;7.63;;
66384;SDS011;53426;55.872;37.462;2024-02-16T04:10:37;18.25;;;10.65;;
66384;SDS011;53426;55.872;37.462;2024-02-16T04:13:12;28.73;;;14.27;;
66384;SDS011;53426;55.872;37.462;2024-02-16T04:15:38;12.93;;;7.80;;
66384;SDS011;53426;55.872;37.462;2024-02-16T04:18:07;16.88;;;9.75;;
66384;SDS011;53426;55.872;37.462;2024-02-16T04:20:33;21.42;;;8.73;;
66384;SDS011;53426;55.872;37.462;2024-02-16T04:26:40;25.88;;;12.35;;
66384;SDS011;53426;55.872;37.462;2024-02-16T04:29:06;26.33;;;11.18;;
66384;SDS011;53426;55.872;37.462;2024-02-16T04:37:22;10.82;;;5.93;;
66384;SDS011;53426;55.872;37.462;2024-02-16T04:46:31;22.30;;;10.68;;
66384;SDS011;53426;55.872;37.462;2024-02-16T04:48:58;15.70;;;9.02;;
66384;SDS011;53426;55.872;37.462;2024-02-16T04:51:23;32.80;;;13.48;;
66384;SDS011;53426;55.872;37.462;2024-02-16T04:53:49;22.60;;;12.38;;
66384;SDS011;53426;55.872;37.462;2024-02-16T04:59:06;16.38;;;9.10;;
66384;SDS011;53426;55.872;37.462;2024-02-16T05:01:34;31.80;;;15.10;;
66384;SDS011;53426;55.872;37.462;2024-02-16T05:04:00;27.65;;;14.40;;
66384;SDS011;53426;55.872;37.462;2024-02-16T05:06:27;20.80;;;10.27;;
66384;SDS011;53426;55.872;37.462;2024-02-16T05:08:59;28.65;;;14.82;;
66384;SDS011;53426;55.872;37.462;2024-02-16T05:11:32;26.10;;;14.43;;
66384;SDS011;53426;55.872;37.462;2024-02-16T05:13:59;12.90;;;10.07;;
66384;SDS011;53426;55.872;37.462;2024-02-16T05:16:28;20.92;;;11.30;;
66384;SDS011;53426;55.872;37.462;2024-02-16T05:19:43;33.70;;;13.05;;
66384;SDS011;53426;55.872;37.462;2024-02-16T05:22:10;29.98;;;15.77;;
66384;SDS011;53426;55.872;37.462;2024-02-16T05:24:38;25.30;;;12.32;;
66384;SDS011;53426;55.872;37.462;2024-02-16T05:27:13;34.55;;;16.98;;
66384;SDS011;53426;55.872;37.462;2024-02-16T05:30:03;27.40;;;14.40;;
66384;SDS011;53426;55.872;37.462;2024-02-16T05:36:02;23.85;;;12.25;;
66384;SDS011;53426;55.872;37.462;2024-02-16T05:38:30;26.83;;;14.30;;
66384;SDS011;53426;55.872;37.462;2024-02-16T05:41:21;28.95;;;14.45;;
66384;SDS011;53426;55.872;37.462;2024-02-16T05:43:49;24.55;;;13.88;;
66384;SDS011;53426;55.872;37.462;2024-02-16T05:46:18;26.23;;;13.43;;
66384;SDS011;53426;55.872;37.462;2024-02-16T05:48:44;34.50;;;13.65;;
66384;SDS011;53426;55.872;37.462;2024-02-16T05:51:18;24.50;;;13.70;;
66384;SDS011;53426;55.872;37.462;2024-02-16T05:53:44;18.98;;;11.25;;
66384;SDS011;53426;55.872;37.462;2024-02-16T05:56:12;31.77;;;15.25;;
66384;SDS011;53426;55.872;37.462;2024-02-16T06:01:35;20.30;;;11.55;;
66384;SDS011;53426;55.872;37.462;2024-02-16T06:04:06;24.75;;;13.38;;
66384;SDS011;53426;55.872;37.462;2024-02-16T06:09:35;27.08;;;13.30;;
66384;SDS011;53426;55.872;37.462;2024-02-16T06:12:26;25.60;;;13.60;;
66384;SDS011;53426;55.872;37.462;2024-02-16T06:14:59;24.30;;;13.27;;
66384;SDS011;53426;55.872;37.462;2024-02-16T06:18:00;25.35;;;13.02;;
66384;SDS011;53426;55.872;37.462;2024-02-16T06:20:33;25.35;;;12.57;;
66384;SDS011;53426;55.872;37.462;2024-02-16T06:23:25;34.90;;;14.23;;
66384;SDS011;53426;55.872;37.462;2024-02-16T06:25:51;22.63;;;12.27;;
66384;SDS011;53426;55.872;37.462;2024-02-16T06:28:20;17.73;;;9.20;;
66384;SDS011;53426;55.872;37.462;2024-02-16T06:30:49;25.63;;;12.10;;
66384;SDS011;53426;55.872;37.462;2024-02-16T06:33:16;26.17;;;12.18;;
66384;SDS011;53426;55.872;37.462;2024-02-16T06:38:38;11.40;;;7.15;;
66384;SDS011;53426;55.872;37.462;2024-02-16T06:41:04;13.30;;;8.52;;
66384;SDS011;53426;55.872;37.462;2024-02-16T06:43:30;32.15;;;11.48;;
66384;SDS011;53426;55.872;37.462;2024-02-16T06:45:59;47.45;;;14.63;;
66384;SDS011;53426;55.872;37.462;2024-02-16T06:48:25;65.20;;;11.77;;
66384;SDS011;53426;55.872;37.462;2024-02-16T06:50:51;28.27;;;9.20;;
66384;SDS011;53426;55.872;37.462;2024-02-16T06:53:19;26.52;;;13.35;;
66384;SDS011;53426;55.872;37.462;2024-02-16T06:55:45;20.45;;;10.68;;
66384;SDS011;53426;55.872;37.462;2024-02-16T06:58:12;18.75;;;10.60;;
66384;SDS011;53426;55.872;37.462;2024-02-16T07:00:39;25.08;;;9.30;;
66384;SDS011;53426;55.872;37.462;2024-02-16T07:03:12;21.83;;;11.27;;
66384;SDS011;53426;55.872;37.462;2024-02-16T07:05:40;18.50;;;11.02;;
66384;SDS011;53426;55.872;37.462;2024-02-16T07:08:07;42.70;;;13.07;;
66384;SDS011;53426;55.872;37.462;2024-02-16T07:10:33;17.17;;;6.15;;
66384;SDS011;53426;55.872;37.462;2024-02-16T07:13:03;11.85;;;6.28;;
66384;SDS011;53426;55.872;37.462;2024-02-16T07:15:38;23.77;;;10.90;;
66384;SDS011;53426;55.872;37.462;2024-02-16T07:18:05;23.30;;;12.02;;
66384;SDS011;53426;55.872;37.462;2024-02-16T07:23:48;15.65;;;8.68;;
66384;SDS011;53426;55.872;37.462;2024-02-16T07:26:14;30.83;;;11.80;;
66384;SDS011;53426;55.872;37.462;2024-02-16T07:28:44;18.83;;;9.27;;
66384;SDS011;53426;55.872;37.462;2024-02-16T07:31:10;16.30;;;9.73;;
66384;SDS011;53426;55.872;37.462;2024-02-16T07:33:39;28.08;;;11.10;;
66384;SDS011;53426;55.872;37.462;2024-02-16T07:36:17;23.05;;;10.82;;
66384;SDS011;53426;55.872;37.462;2024-02-16T07:38:44;27.88;;;12.13;;
66384;SDS011;53426;55.872;37.462;2024-02-16T07:41:10;26.00;;;12.73;;
66384;SDS011;53426;55.872;37.462;2024-02-16T07:43:36;35.78;;;13.63;;
66384;SDS011;53426;55.872;37.462;2024-02-16T07:46:02;22.02;;;11.43;;
66384;SDS011;53426;55.872;37.462;2024-02-16T07:48:29;56.90;;;15.82;;
66384;SDS011;53426;55.872;37.462;2024-02-16T07:50:55;37.17;;;12.95;;
66384;SDS011;53426;55.872;37.462;2024-02-16T07:53:23;21.08;;;11.77;;
66384;SDS011;53426;55.872;37.462;2024-02-16T07:55:49;34.30;;;12.55;;
66384;SDS011;53426;55.872;37.462;2024-02-16T07:58:21;29.48;;;12.98;;
66384;SDS011;53426;55.872;37.462;2024-02-16T08:00:47;30.63;;;12.82;;
66384;SDS011;53426;55.872;37.462;2024-02-16T08:03:16;24.10;;;13.13;;
66384;SDS011;53426;55.872;37.462;2024-02-16T08:05:43;27.65;;;10.07;;
66384;SDS011;53426;55.872;37.462;2024-02-16T08:08:10;20.02;;;12.30;;
66384;SDS011;53426;55.872;37.462;2024-02-16T08:10:37;20.38;;;10.45;;
66384;SDS011;53426;55.872;37.462;2024-02-16T08:13:04;19.30;;;11.77;;
66384;SDS011;53426;55.872;37.462;2024-02-16T08:15:30;33.28;;;11.23;;
66384;SDS011;53426;55.872;37.462;2024-02-16T08:17:56;31.33;;;11.80;;
66384;SDS011;53426;55.872;37.462;2024-02-16T08:20:23;26.23;;;12.35;;
66384;SDS011;53426;55.872;37.462;2024-02-16T08:22:50;37.17;;;13.85;;
66384;SDS011;53426;55.872;37.462;2024-02-16T08:25:17;46.03;;;12.35;;
66384;SDS011;53426;55.872;37.462;2024-02-16T08:27:44;22.45;;;12.73;;
66384;SDS011;53426;55.872;37.462;2024-02-16T08:30:12;23.60;;;13.68;;
66384;SDS011;53426;55.872;37.462;2024-02-16T08:32:38;28.92;;;11.88;;
66384;SDS011;53426;55.872;37.462;2024-02-16T08:35:04;25.17;;;12.63;;
66384;SDS011;53426;55.872;37.462;2024-02-16T08:37:32;33.40;;;14.15;;
66384;SDS011;53426;55.872;37.462;2024-02-16T08:39:59;31.15;;;13.40;;
66384;SDS011;53426;55.872;37.462;2024-02-16T08:45:57;28.10;;;14.52;;
66384;SDS011;53426;55.872;37.462;2024-02-16T08:51:38;23.97;;;10.77;;
66384;SDS011;53426;55.872;37.462;2024-02-16T08:54:04;25.30;;;9.80;;
66384;SDS011;53426;55.872;37.462;2024-02-16T08:56:30;22.77;;;12.25;;
66384;SDS011;53426;55.872;37.462;2024-02-16T09:02:30;33.85;;;14.25;;
66384;SDS011;53426;55.872;37.462;2024-02-16T09:04:59;36.72;;;15.32;;
66384;SDS011;53426;55.872;37.462;2024-02-16T09:07:31;35.58;;;14.00;;
66384;SDS011;53426;55.872;37.462;2024-02-16T09:09:59;30.58;;;13.80;;
66384;SDS011;53426;55.872;37.462;2024-02-16T09:12:27;48.72;;;16.77;;
66384;SDS011;53426;55.872;37.462;2024-02-16T09:14:55;25.60;;;13.00;;
66384;SDS011;53426;55.872;37.462;2024-02-16T09:17:26;28.85;;;14.48;;
66384;SDS011;53426;55.872;37.462;2024-02-16T09:19:53;30.27;;;14.25;;
66384;SDS011;53426;55.872;37.462;2024-02-16T09:22:19;27.95;;;12.98;;
66384;SDS011;53426;55.872;37.462;2024-02-16T09:24:46;32.35;;;14.73;;
66384;SDS011;53426;55.872;37.462;2024-02-16T09:27:14;25.20;;;14.25;;
66384;SDS011;53426;55.872;37.462;2024-02-16T09:30:11;24.55;;;14.27;;
66384;SDS011;53426;55.872;37.462;2024-02-16T09:32:42;31.23;;;15.07;;
66384;SDS011;53426;55.872;37.462;2024-02-16T09:35:11;33.13;;;15.40;;
66384;SDS011;53426;55.872;37.462;2024-02-16T09:37:43;39.72;;;14.73;;
66384;SDS011;53426;55.872;37.462;2024-02-16T09:40:13;18.88;;;11.82;;
66384;SDS011;53426;55.872;37.462;2024-02-16T09:42:40;24.73;;;12.65;;
66384;SDS011;53426;55.872;37.462;2024-02-16T09:45:09;20.98;;;10.48;;
66384;SDS011;53426;55.872;37.462;2024-02-16T09:47:39;28.92;;;15.93;;
66384;SDS011;53426;55.872;37.462;2024-02-16T09:50:07;29.83;;;15.48;;
66384;SDS011;53426;55.872;37.462;2024-02-16T09:55:36;22.67;;;13.23;;
66384;SDS011;53426;55.872;37.462;2024-02-16T09:58:07;25.65;;;14.27;;
66384;SDS011;53426;55.872;37.462;2024-02-16T10:00:36;34.90;;;14.07;;
66384;SDS011;53426;55.872;37.462;2024-02-16T10:03:24;29.80;;;15.88;;
66384;SDS011;53426;55.872;37.462;2024-02-16T10:08:54;22.98;;;11.23;;
66384;SDS011;53426;55.872;37.462;2024-02-16T10:11:24;38.05;;;15.02;;
66384;SDS011;53426;55.872;37.462;2024-02-16T10:13:59;28.27;;;16.33;;
66384;SDS011;53426;55.872;37.462;2024-02-16T10:19:30;28.63;;;16.10;;
66384;SDS011;53426;55.872;37.462;2024-02-16T10:22:10;31.17;;;15.27;;
66384;SDS011;53426;55.872;37.462;2024-02-16T10:24:36;34.55;;;17.27;;
66384;SDS011;53426;55.872;37.462;2024-02-16T10:27:15;22.90;;;12.05;;
66384;SDS011;53426;55.872;37.462;2024-02-16T10:29:56;24.15;;;14.52;;
66384;SDS011;53426;55.872;37.462;2024-02-16T10:32:22;29.67;;;13.55;;
66384;SDS011;53426;55.872;37.462;2024-02-16T10:34:49;30.38;;;13.50;;
66384;SDS011;53426;55.872;37.462;2024-02-16T10:37:21;34.13;;;15.02;;
66384;SDS011;53426;55.872;37.462;2024-02-16T10:39:51;29.27;;;15.50;;
66384;SDS011;53426;55.872;37.462;2024-02-16T10:42:29;19.13;;;10.37;;
66384;SDS011;53426;55.872;37.462;2024-02-16T10:53:24;27.60;;;15.10;;
66384;SDS011;53426;55.872;37.462;2024-02-16T10:56:01;26.35;;;14.93;;
66384;SDS011;53426;55.872;37.462;2024-02-16T10:58:32;25.50;;;14.95;;
66384;SDS011;53426;55.872;37.462;2024-02-16T11:06:47;32.20;;;17.05;;
66384;SDS011;53426;55.872;37.462;2024-02-16T11:09:30;26.83;;;13.75;;
66384;SDS011;53426;55.872;37.462;2024-02-16T11:12:03;33.65;;;18.25;;
66384;SDS011;53426;55.872;37.462;2024-02-16T11:14:47;29.70;;;15.60;;
66384;SDS011;53426;55.872;37.462;2024-02-16T11:17:26;24.08;;;15.60;;
66384;SDS011;53426;55.872;37.462;2024-02-16T11:19:54;29.27;;;14.60;;
66384;SDS011;53426;55.872;37.462;2024-02-16T11:22:20;29.33;;;17.70;;
66384;SDS011;53426;55.872;37.462;2024-02-16T11:24:53;23.50;;;13.25;;
66384;SDS011;53426;55.872;37.462;2024-02-16T11:27:20;35.65;;;16.73;;
66384;SDS011;53426;55.872;37.462;2024-02-16T11:29:47;26.08;;;14.82;;
66384;SDS011;53426;55.872;37.462;2024-02-16T11:32:18;37.78;;;17.40;;
66384;SDS011;53426;55.872;37.462;2024-02-16T11:34:52;34.00;;;18.13;;
66384;SDS011;53426;55.872;37.462;2024-02-16T11:37:18;29.88;;;16.08;;
66384;SDS011;53426;55.872;37.462;2024-02-16T11:39:57;29.38;;;17.02;;
66384;SDS011;53426;55.872;37.462;2024-02-16T11:45:33;28.92;;;15.57;;
66384;SDS011;53426;55.872;37.462;2024-02-16T11:51:02;31.05;;;17.75;;
66384;SDS011;53426;55.872;37.462;2024-02-16T11:53:35;37.53;;;17.05;;
66384;SDS011;53426;55.872;37.462;2024-02-16T11:57:14;32.10;;;16.08;;
66384;SDS011;53426;55.872;37.462;2024-02-16T11:59:43;29.25;;;16.92;;
66384;SDS011;53426;55.872;37.462;2024-02-16T12:02:16;32.70;;;14.02;;
66384;SDS011;53426;55.872;37.462;2024-02-16T12:04:44;35.15;;;17.40;;
66384;SDS011;53426;55.872;37.462;2024-02-16T12:07:41;28.80;;;16.80;;
66384;SDS011;53426;55.872;37.462;2024-02-16T12:10:07;27.00;;;15.38;;
66384;SDS011;53426;55.872;37.462;2024-02-16T12:12:34;30.95;;;17.70;;
66384;SDS011;53426;55.872;37.462;2024-02-16T12:15:00;20.27;;;12.15;;
66384;SDS011;53426;55.872;37.462;2024-02-16T12:17:30;33.70;;;18.17;;
66384;SDS011;53426;55.872;37.462;2024-02-16T12:19:56;31.50;;;16.52;;
66384;SDS011;53426;55.872;37.462;2024-02-16T12:22:27;34.55;;;18.63;;
66384;SDS011;53426;55.872;37.462;2024-02-16T12:24:53;29.80;;;16.10;;
66384;SDS011;53426;55.872;37.462;2024-02-16T12:27:19;34.58;;;17.30;;
66384;SDS011;53426;55.872;37.462;2024-02-16T12:29:48;35.78;;;18.45;;
66384;SDS011;53426;55.872;37.462;2024-02-16T12:32:14;27.38;;;15.88;;
66384;SDS011;53426;55.872;37.462;2024-02-16T12:34:45;35.28;;;16.88;;
66384;SDS011;53426;55.872;37.462;2024-02-16T12:37:11;37.22;;;18.75;;
66384;SDS011;53426;55.872;37.462;2024-02-16T12:39:37;39.28;;;17.27;;
66384;SDS011;53426;55.872;37.462;2024-02-16T12:42:06;29.60;;;17.30;;
66384;SDS011;53426;55.872;37.462;2024-02-16T12:44:32;37.55;;;18.55;;
66384;SDS011;53426;55.872;37.462;2024-02-16T12:46:58;26.58;;;15.00;;
66384;SDS011;53426;55.872;37.462;2024-02-16T12:52:26;29.48;;;15.95;;
66384;SDS011;53426;55.872;37.462;2024-02-16T12:54:56;32.03;;;17.67;;
66384;SDS011;53426;55.872;37.462;2024-02-16T12:57:24;34.92;;;18.98;;
66384;SDS011;53426;55.872;37.462;2024-02-16T12:59:50;29.70;;;16.67;;
66384;SDS011;53426;55.872;37.462;2024-02-16T13:02:15;27.70;;;15.55;;
66384;SDS011;53426;55.872;37.462;2024-02-16T13:04:41;27.30;;;16.65;;
66384;SDS011;53426;55.872;37.462;2024-02-16T13:07:07;31.90;;;18.30;;
66384;SDS011;53426;55.872;37.462;2024-02-16T13:09:51;30.85;;;17.65;;
66384;SDS011;53426;55.872;37.462;2024-02-16T13:12:24;29.65;;;16.05;;
66384;SDS011;53426;55.872;37.462;2024-02-16T13:14:52;30.70;;;16.88;;
66384;SDS011;53426;55.872;37.462;2024-02-16T13:17:18;20.55;;;11.25;;
66384;SDS011;53426;55.872;37.462;2024-02-16T13:19:44;32.70;;;14.52;;
66384;SDS011;53426;55.872;37.462;2024-02-16T13:22:10;25.27;;;13.88;;
66384;SDS011;53426;55.872;37.462;2024-02-16T13:25:05;31.90;;;16.25;;
66384;SDS011;53426;55.872;37.462;2024-02-16T13:27:34;33.15;;;13.98;;
66384;SDS011;53426;55.872;37.462;2024-02-16T13:30:02;38.80;;;16.75;;
66384;SDS011;53426;55.872;37.462;2024-02-16T13:32:31;17.55;;;9.55;;
66384;SDS011;53426;55.872;37.462;2024-02-16T13:34:57;27.85;;;14.38;;
66384;SDS011;53426;55.872;37.462;2024-02-16T13:37:23;32.55;;;16.38;;
66384;SDS011;53426;55.872;37.462;2024-02-16T13:39:51;38.65;;;16.23;;
66384;SDS011;53426;55.872;37.462;2024-02-16T13:42:16;35.20;;;17.77;;
66384;SDS011;53426;55.872;37.462;2024-02-16T13:44:43;25.98;;;12.50;;
66384;SDS011;53426;55.872;37.462;2024-02-16T13:47:13;32.88;;;17.83;;
66384;SDS011;53426;55.872;37.462;2024-02-16T13:49:39;28.30;;;16.23;;
66384;SDS011;53426;55.872;37.462;2024-02-16T13:52:05;32.83;;;17.25;;
66384;SDS011;53426;55.872;37.462;2024-02-16T13:57:24;32.13;;;16.17;;
66384;SDS011;53426;55.872;37.462;2024-02-16T13:59:50;33.25;;;15.88;;
66384;SDS011;53426;55.872;37.462;2024-02-16T14:02:22;35.15;;;16.98;;
66384;SDS011;53426;55.872;37.462;2024-02-16T14:04:49;31.20;;;16.33;;
66384;SDS011;53426;55.872;37.462;2024-02-16T14:07:15;23.85;;;12.98;;
66384;SDS011;53426;55.872;37.462;2024-02-16T14:09:41;31.35;;;17.00;;
66384;SDS011;53426;55.872;37.462;2024-02-16T14:12:07;32.35;;;17.17;;
66384;SDS011;53426;55.872;37.462;2024-02-16T14:14:33;28.30;;;15.93;;
66384;SDS011;53426;55.872;37.462;2024-02-16T14:17:01;23.83;;;13.63;;
66384;SDS011;53426;55.872;37.462;2024-02-16T14:19:27;43.03;;;18.17;;
66384;SDS011;53426;55.872;37.462;2024-02-16T14:21:54;57.17;;;18.10;;
66384;SDS011;53426;55.872;37.462;2024-02-16T14:24:21;26.67;;;14.63;;
66384;SDS011;53426;55.872;37.462;2024-02-16T14:26:48;43.10;;;16.85;;
66384;SDS011;53426;55.872;37.462;2024-02-16T14:29:15;24.08;;;13.63;;
66384;SDS011;53426;55.872;37.462;2024-02-16T14:31:41;29.30;;;15.40;;
66384;SDS011;53426;55.872;37.462;2024-02-16T14:34:08;27.42;;;11.88;;
66384;SDS011;53426;55.872;37.462;2024-02-16T14:36:34;34.30;;;16.77;;
66384;SDS011;53426;55.872;37.462;2024-02-16T14:38:59;32.28;;;15.65;;
66384;SDS011;53426;55.872;37.462;2024-02-16T14:41:26;28.88;;;15.65;;
66384;SDS011;53426;55.872;37.462;2024-02-16T14:43:53;31.65;;;16.45;;
66384;SDS011;53426;55.872;37.462;2024-02-16T14:46:19;32.72;;;18.05;;
66384;SDS011;53426;55.872;37.462;2024-02-16T14:48:45;30.30;;;15.77;;
66384;SDS011;53426;55.872;37.462;2024-02-16T14:51:13;23.33;;;12.25;;
66384;SDS011;53426;55.872;37.462;2024-02-16T14:53:39;36.30;;;16.33;;
66384;SDS011;53426;55.872;37.462;2024-02-16T14:56:05;29.45;;;14.82;;
66384;SDS011;53426;55.872;37.462;2024-02-16T14:58:31;23.70;;;14.60;;
66384;SDS011;53426;55.872;37.462;2024-02-16T15:00:58;19.90;;;10.73;;
66384;SDS011;53426;55.872;37.462;2024-02-16T15:03:27;22.35;;;12.00;;
66384;SDS011;53426;55.872;37.462;2024-02-16T15:05:58;33.25;;;16.52;;
66384;SDS011;53426;55.872;37.462;2024-02-16T15:08:45;33.13;;;17.20;;
66384;SDS011;53426;55.872;37.462;2024-02-16T15:11:14;29.63;;;15.05;;
66384;SDS011;53426;55.872;37.462;2024-02-16T15:16:35;29.73;;;14.00;;
66384;SDS011;53426;55.872;37.462;2024-02-16T15:19:02;28.75;;;14.70;;
66384;SDS011;53426;55.872;37.462;2024-02-16T15:21:28;32.50;;;16.88;;
66384;SDS011;53426;55.872;37.462;2024-02-16T15:23:53;30.48;;;15.43;;
66384;SDS011;53426;55.872;37.462;2024-02-16T15:26:20;19.35;;;11.18;;
66384;SDS011;53426;55.872;37.462;2024-02-16T15:28:49;29.48;;;15.00;;
66384;SDS011;53426;55.872;37.462;2024-02-16T15:32:16;23.95;;;12.27;;
66384;SDS011;53426;55.872;37.462;2024-02-16T15:34:45;31.38;;;16.50;;
66384;SDS011;53426;55.872;37.462;2024-02-16T15:37:14;21.75;;;11.60;;
66384;SDS011;53426;55.872;37.462;2024-02-16T15:39:42;29.55;;;16.52;;
66384;SDS011;53426;55.872;37.462;2024-02-16T15:42:08;16.83;;;11.18;;
66384;SDS011;53426;55.872;37.462;2024-02-16T15:44:37;28.85;;;14.35;;
66384;SDS011;53426;55.872;37.462;2024-02-16T15:51:07;16.90;;;10.20;;
66384;SDS011;53426;55.872;37.462;2024-02-16T15:53:33;12.90;;;8.27;;
66384;SDS011;53426;55.872;37.462;2024-02-16T15:55:59;33.72;;;14.43;;
66384;SDS011;53426;55.872;37.462;2024-02-16T15:58:28;24.05;;;13.45;;
66384;SDS011;53426;55.872;37.462;2024-02-16T16:00:54;26.33;;;14.40;;
66384;SDS011;53426;55.872;37.462;2024-02-16T16:03:20;32.38;;;14.95;;
66384;SDS011;53426;55.872;37.462;2024-02-16T16:05:46;31.92;;;15.23;;
66384;SDS011;53426;55.872;37.462;2024-02-16T16:08:12;23.25;;;12.70;;
66384;SDS011;53426;55.872;37.462;2024-02-16T16:10:38;19.05;;;10.18;;
66384;SDS011;53426;55.872;37.462;2024-02-16T16:13:04;30.15;;;13.88;;
66384;SDS011;53426;55.872;37.462;2024-02-16T16:15:33;32.05;;;16.10;;
66384;SDS011;53426;55.872;37.462;2024-02-16T16:17:59;24.60;;;12.65;;
66384;SDS011;53426;55.872;37.462;2024-02-16T16:20:25;15.05;;;8.35;;
66384;SDS011;53426;55.872;37.462;2024-02-16T16:22:52;32.55;;;15.27;;
66384;SDS011;53426;55.872;37.462;2024-02-16T16:25:18;42.08;;;15.82;;
66384;SDS011;53426;55.872;37.462;2024-02-16T16:27:47;31.98;;;14.95;;